Impacts TAF Board
For situational awareness. Not to be used for flight planning purposes.
IDs:

KFST - Fort Stockton/Pecos, TX, US

Issued at 1825 UTC 01 Feb 2023
Updated at 2249 UTC 01 Feb 2023
Potential Impact None Slight Moderate High
Time2234Z 01/23Z 02/00Z 02/01Z 02/02Z 02/03Z 02/04Z 02/05Z 02/06Z 02/07Z 02/08Z 02/09Z 02/10Z 02/11Z>>
Type OBS PRVL PRVL PRVL PRVL PRVL PRVL PRVL PRVL PRVL PRVL PRVL PRVL PRVL
VIS -- 4 4 4 5 5 5 5 5 5 5 5 5 5
CIG 7 7 7 7 5 5 5 5 5 5 5 5 5 5
Cover OVC OVC OVC OVC OVC OVC OVC OVC OVC OVC OVC OVC OVC OVC
FltCat IFR IFR IFR IFR IFR IFR IFR IFR IFR IFR IFR IFR IFR IFR
WX -- -FZRA -FZRA -FZRA -SN BR -SN BR -SN BR -SN BR -SN BR -SN BR -SN BR -SN BR -SN BR -SN BR
WDir VRB 320 320 320 330 330 330 330 330 330 330 330 330 330
WSpd 0 3 3 3 5 5 5 5 5 5 5 5 5 5
WGst -- -- -- -- -- -- -- -- -- -- -- -- -- --
WSHgt -- -- -- -- -- -- -- -- -- -- -- -- -- --
WSDir -- -- -- -- -- -- -- -- -- -- -- -- -- --
WSSpd -- -- -- -- -- -- -- -- -- -- -- -- -- --
R03/21
XWnd VRB 3 3 3 5 5 5 5 5 5 5 5 5 5
HWnd VRB 1 1 1 2 2 2 2 2 2 2 2 2 2
R07/25
XWnd VRB 3 3 3 5 5 5 5 5 5 5 5 5 5
HWnd VRB -2 -2 -2 -2 -2 -2 -2 -2 -2 -2 -2 -2 -2
R11/29
XWnd VRB 1 1 1 2 2 2 2 2 2 2 2 2 2
HWnd VRB -3 -3 -3 -5 -5 -5 -5 -5 -5 -5 -5 -5 -5
R12/30
XWnd VRB 1 1 1 2 2 2 2 2 2 2 2 2 2
HWnd VRB -3 -3 -3 -5 -5 -5 -5 -5 -5 -5 -5 -5 -5
R16/34
XWnd VRB -2 -2 -2 -2 -2 -2 -2 -2 -2 -2 -2 -2 -2
HWnd VRB -3 -3 -3 -5 -5 -5 -5 -5 -5 -5 -5 -5 -5

NOTE: LAMP data beyond the time of the TAF data is denoted as LAMP in Type and colored magenta.

Raw TAF
KFST 011825Z 0118/0218 32003KT 4SM -FZRA BKN007 OVC025
  FM020200 33005KT 5SM -SN BR OVC005


Raw METAR
KFST 012234Z AUTO 00000KT OVC007 M01/M03 A3018 RMK AO2 UPB2157E33FZRAE2157 P0001 I1000 T10111033
KFST 012223Z AUTO 05004KT UP OVC009 M01/M03 A3015 RMK AO2 UPB2157FZRAE2157 CIG 006V011 P0001 I1000 T10111033
KFST 012203Z AUTO 00000KT UP OVC010 M01/M04 A3016 RMK AO2 UPB2157FZRAE2157 CIG 008V011 P0000 I1000 T10111039
KFST 012153Z AUTO 00000KT -FZRA OVC010 M01/M04 A3017 RMK AO2 UPB01E04FZRAB04 SLP222 P0001 I1002 T10111039
KFST 012104Z AUTO 00000KT -FZRA OVC010 M02/M03 A3019 RMK AO2 UPB01E04FZRAB04 P0000 I1000 T10171033
KFST 012053Z AUTO 00000KT OVC009 M02/M04 A3018 RMK AO2 FZRAE23 SLP225 P0000 60004 I1000 I3001 T10171039 58037
KFST 012045Z AUTO 01003KT OVC009 M02/M04 A3018 RMK AO2 FZRAE23 CIG 006V011 P0000 I1000 T10171039
KFST 012029Z AUTO 04004KT OVC007 M02/M04 A3018 RMK AO2 FZRAE23 P0000 I1000 T10171039
KFST 011953Z AUTO 00000KT -FZRA BKN009 OVC060 M02/M04 A3021 RMK AO2 UPB1856E10B44E52FZRAE1856B10E32B52 CIG 007V013 SLP240 P0001 I1000 T10221039
KFST 011938Z AUTO 00000KT OVC009 M02/M04 A3023 RMK AO2 UPB1856E10FZRAE1856B10E32 CIG 006V012 P0000 I1000 T10221039

METAR Board
Radar Display
Forecast Discussion

For situational awareness. Not to be used for flight planning purposes.